sensor_id;sensor_type;location;lat;lon;timestamp;P1;durP1;ratioP1;P2;durP2;ratioP2
3433;SDS011;1730;41.932;25.548;2022-08-21T00:01:18;8.90;;;4.60;;
3433;SDS011;1730;41.932;25.548;2022-08-21T00:03:46;9.63;;;4.43;;
3433;SDS011;1730;41.932;25.548;2022-08-21T00:06:13;6.87;;;4.50;;
3433;SDS011;1730;41.932;25.548;2022-08-21T00:08:39;13.07;;;4.80;;
3433;SDS011;1730;41.932;25.548;2022-08-21T00:11:05;11.97;;;5.47;;
3433;SDS011;1730;41.932;25.548;2022-08-21T00:13:31;6.40;;;4.70;;
3433;SDS011;1730;41.932;25.548;2022-08-21T00:15:58;14.23;;;5.30;;
3433;SDS011;1730;41.932;25.548;2022-08-21T00:18:24;7.50;;;4.63;;
3433;SDS011;1730;41.932;25.548;2022-08-21T00:20:50;4.87;;;4.37;;
3433;SDS011;1730;41.932;25.548;2022-08-21T00:23:15;8.20;;;5.20;;
3433;SDS011;1730;41.932;25.548;2022-08-21T00:25:42;7.50;;;4.40;;
3433;SDS011;1730;41.932;25.548;2022-08-21T00:28:09;14.23;;;4.63;;
3433;SDS011;1730;41.932;25.548;2022-08-21T00:30:37;10.00;;;5.03;;
3433;SDS011;1730;41.932;25.548;2022-08-21T00:33:03;10.67;;;4.97;;
3433;SDS011;1730;41.932;25.548;2022-08-21T00:35:32;8.63;;;5.00;;
3433;SDS011;1730;41.932;25.548;2022-08-21T00:38:00;8.63;;;5.80;;
3433;SDS011;1730;41.932;25.548;2022-08-21T00:40:29;7.57;;;4.97;;
3433;SDS011;1730;41.932;25.548;2022-08-21T00:42:56;6.73;;;4.97;;
3433;SDS011;1730;41.932;25.548;2022-08-21T00:45:24;6.27;;;4.30;;
3433;SDS011;1730;41.932;25.548;2022-08-21T00:47:51;7.23;;;4.40;;
3433;SDS011;1730;41.932;25.548;2022-08-21T00:50:18;10.53;;;4.40;;
3433;SDS011;1730;41.932;25.548;2022-08-21T00:52:44;13.60;;;4.70;;
3433;SDS011;1730;41.932;25.548;2022-08-21T00:55:10;8.93;;;4.50;;
3433;SDS011;1730;41.932;25.548;2022-08-21T00:57:42;13.00;;;5.23;;
3433;SDS011;1730;41.932;25.548;2022-08-21T01:00:14;12.37;;;4.60;;
3433;SDS011;1730;41.932;25.548;2022-08-21T01:02:43;7.83;;;5.13;;
3433;SDS011;1730;41.932;25.548;2022-08-21T01:05:09;6.00;;;5.40;;
3433;SDS011;1730;41.932;25.548;2022-08-21T01:07:35;12.33;;;5.00;;
3433;SDS011;1730;41.932;25.548;2022-08-21T01:10:02;5.00;;;4.47;;
3433;SDS011;1730;41.932;25.548;2022-08-21T01:12:28;7.90;;;5.00;;
3433;SDS011;1730;41.932;25.548;2022-08-21T01:14:54;5.03;;;4.37;;
3433;SDS011;1730;41.932;25.548;2022-08-21T01:17:19;8.50;;;4.63;;
3433;SDS011;1730;41.932;25.548;2022-08-21T01:19:46;6.00;;;4.43;;
3433;SDS011;1730;41.932;25.548;2022-08-21T01:22:12;11.20;;;4.67;;
3433;SDS011;1730;41.932;25.548;2022-08-21T01:24:38;7.07;;;5.20;;
3433;SDS011;1730;41.932;25.548;2022-08-21T01:27:03;11.83;;;5.20;;
3433;SDS011;1730;41.932;25.548;2022-08-21T01:29:38;11.23;;;5.70;;
3433;SDS011;1730;41.932;25.548;2022-08-21T01:32:11;6.00;;;4.50;;
3433;SDS011;1730;41.932;25.548;2022-08-21T01:34:40;10.13;;;5.47;;
3433;SDS011;1730;41.932;25.548;2022-08-21T01:37:08;10.17;;;5.43;;
3433;SDS011;1730;41.932;25.548;2022-08-21T01:39:35;14.80;;;5.90;;
3433;SDS011;1730;41.932;25.548;2022-08-21T01:42:01;9.70;;;5.63;;
3433;SDS011;1730;41.932;25.548;2022-08-21T01:44:27;4.90;;;4.23;;
3433;SDS011;1730;41.932;25.548;2022-08-21T01:46:53;14.03;;;6.70;;
3433;SDS011;1730;41.932;25.548;2022-08-21T01:49:20;9.43;;;5.37;;
3433;SDS011;1730;41.932;25.548;2022-08-21T01:51:46;8.07;;;5.70;;
3433;SDS011;1730;41.932;25.548;2022-08-21T01:54:12;12.33;;;5.47;;
3433;SDS011;1730;41.932;25.548;2022-08-21T01:56:39;13.63;;;7.20;;
3433;SDS011;1730;41.932;25.548;2022-08-21T01:59:06;8.77;;;6.30;;
3433;SDS011;1730;41.932;25.548;2022-08-21T02:01:32;7.93;;;5.70;;
3433;SDS011;1730;41.932;25.548;2022-08-21T02:03:58;6.80;;;5.80;;
3433;SDS011;1730;41.932;25.548;2022-08-21T02:06:24;8.67;;;5.73;;
3433;SDS011;1730;41.932;25.548;2022-08-21T02:08:51;11.43;;;6.00;;
3433;SDS011;1730;41.932;25.548;2022-08-21T02:11:17;10.53;;;5.13;;
3433;SDS011;1730;41.932;25.548;2022-08-21T02:13:43;7.20;;;5.27;;
3433;SDS011;1730;41.932;25.548;2022-08-21T02:16:09;7.93;;;5.63;;
3433;SDS011;1730;41.932;25.548;2022-08-21T02:18:35;10.50;;;6.43;;
3433;SDS011;1730;41.932;25.548;2022-08-21T02:21:01;6.70;;;5.77;;
3433;SDS011;1730;41.932;25.548;2022-08-21T02:23:28;9.50;;;6.33;;
3433;SDS011;1730;41.932;25.548;2022-08-21T02:25:55;7.63;;;6.00;;
3433;SDS011;1730;41.932;25.548;2022-08-21T02:28:22;9.67;;;6.70;;
3433;SDS011;1730;41.932;25.548;2022-08-21T02:30:48;6.53;;;5.93;;
3433;SDS011;1730;41.932;25.548;2022-08-21T02:33:15;8.70;;;6.30;;
3433;SDS011;1730;41.932;25.548;2022-08-21T02:35:41;7.33;;;6.73;;
3433;SDS011;1730;41.932;25.548;2022-08-21T02:38:10;10.70;;;7.60;;
3433;SDS011;1730;41.932;25.548;2022-08-21T02:40:39;7.67;;;6.97;;
3433;SDS011;1730;41.932;25.548;2022-08-21T02:43:06;7.83;;;7.00;;
3433;SDS011;1730;41.932;25.548;2022-08-21T02:45:32;12.17;;;7.40;;
3433;SDS011;1730;41.932;25.548;2022-08-21T02:48:00;9.40;;;7.33;;
3433;SDS011;1730;41.932;25.548;2022-08-21T02:50:30;10.67;;;7.30;;
3433;SDS011;1730;41.932;25.548;2022-08-21T02:52:59;8.73;;;7.67;;
3433;SDS011;1730;41.932;25.548;2022-08-21T02:55:26;7.50;;;6.87;;
3433;SDS011;1730;41.932;25.548;2022-08-21T02:57:54;9.20;;;6.90;;
3433;SDS011;1730;41.932;25.548;2022-08-21T03:00:21;7.57;;;6.43;;
3433;SDS011;1730;41.932;25.548;2022-08-21T03:02:48;8.93;;;6.30;;
3433;SDS011;1730;41.932;25.548;2022-08-21T03:05:15;13.80;;;7.50;;
3433;SDS011;1730;41.932;25.548;2022-08-21T03:07:42;10.13;;;7.03;;
3433;SDS011;1730;41.932;25.548;2022-08-21T03:10:09;10.00;;;7.00;;
3433;SDS011;1730;41.932;25.548;2022-08-21T03:12:35;9.50;;;6.20;;
3433;SDS011;1730;41.932;25.548;2022-08-21T03:15:09;9.20;;;6.60;;
3433;SDS011;1730;41.932;25.548;2022-08-21T03:17:36;8.07;;;6.40;;
3433;SDS011;1730;41.932;25.548;2022-08-21T03:20:02;10.97;;;6.57;;
3433;SDS011;1730;41.932;25.548;2022-08-21T03:22:29;7.30;;;6.30;;
3433;SDS011;1730;41.932;25.548;2022-08-21T03:24:55;7.33;;;6.73;;
3433;SDS011;1730;41.932;25.548;2022-08-21T03:27:22;9.70;;;7.10;;
3433;SDS011;1730;41.932;25.548;2022-08-21T03:29:50;8.87;;;6.37;;
3433;SDS011;1730;41.932;25.548;2022-08-21T03:32:16;7.37;;;6.80;;
3433;SDS011;1730;41.932;25.548;2022-08-21T03:34:41;10.73;;;6.47;;
3433;SDS011;1730;41.932;25.548;2022-08-21T03:37:07;6.80;;;6.10;;
3433;SDS011;1730;41.932;25.548;2022-08-21T03:39:33;6.47;;;5.47;;
3433;SDS011;1730;41.932;25.548;2022-08-21T03:41:59;10.43;;;6.13;;
3433;SDS011;1730;41.932;25.548;2022-08-21T03:44:25;8.60;;;5.67;;
3433;SDS011;1730;41.932;25.548;2022-08-21T03:46:53;9.60;;;6.13;;
3433;SDS011;1730;41.932;25.548;2022-08-21T03:49:19;8.30;;;6.50;;
3433;SDS011;1730;41.932;25.548;2022-08-21T03:51:44;9.57;;;6.70;;
3433;SDS011;1730;41.932;25.548;2022-08-21T03:54:10;6.63;;;6.00;;
3433;SDS011;1730;41.932;25.548;2022-08-21T03:56:35;11.97;;;6.67;;
3433;SDS011;1730;41.932;25.548;2022-08-21T03:59:01;8.97;;;6.60;;
3433;SDS011;1730;41.932;25.548;2022-08-21T04:01:28;7.40;;;6.47;;
3433;SDS011;1730;41.932;25.548;2022-08-21T04:03:53;11.23;;;7.77;;
3433;SDS011;1730;41.932;25.548;2022-08-21T04:06:19;9.90;;;7.50;;
3433;SDS011;1730;41.932;25.548;2022-08-21T04:08:45;11.03;;;8.20;;
3433;SDS011;1730;41.932;25.548;2022-08-21T04:11:10;9.23;;;8.33;;
3433;SDS011;1730;41.932;25.548;2022-08-21T04:13:36;17.90;;;9.03;;
3433;SDS011;1730;41.932;25.548;2022-08-21T04:16:03;11.70;;;8.80;;
3433;SDS011;1730;41.932;25.548;2022-08-21T04:18:29;16.30;;;9.37;;
3433;SDS011;1730;41.932;25.548;2022-08-21T04:20:54;13.20;;;9.80;;
3433;SDS011;1730;41.932;25.548;2022-08-21T04:23:23;10.90;;;8.50;;
3433;SDS011;1730;41.932;25.548;2022-08-21T04:25:48;12.93;;;9.33;;
3433;SDS011;1730;41.932;25.548;2022-08-21T04:28:14;15.07;;;10.53;;
3433;SDS011;1730;41.932;25.548;2022-08-21T04:30:40;14.80;;;9.70;;
3433;SDS011;1730;41.932;25.548;2022-08-21T04:33:06;12.73;;;10.83;;
3433;SDS011;1730;41.932;25.548;2022-08-21T04:35:32;17.53;;;11.00;;
3433;SDS011;1730;41.932;25.548;2022-08-21T04:37:58;20.50;;;11.70;;
3433;SDS011;1730;41.932;25.548;2022-08-21T04:40:24;17.67;;;11.93;;
3433;SDS011;1730;41.932;25.548;2022-08-21T04:42:56;22.67;;;11.87;;
3433;SDS011;1730;41.932;25.548;2022-08-21T04:45:28;17.20;;;11.77;;
3433;SDS011;1730;41.932;25.548;2022-08-21T04:48:00;20.37;;;12.40;;
3433;SDS011;1730;41.932;25.548;2022-08-21T04:50:28;19.13;;;12.53;;
3433;SDS011;1730;41.932;25.548;2022-08-21T04:53:07;20.17;;;13.80;;
3433;SDS011;1730;41.932;25.548;2022-08-21T04:55:36;23.90;;;14.60;;
3433;SDS011;1730;41.932;25.548;2022-08-21T04:58:04;19.60;;;14.80;;
3433;SDS011;1730;41.932;25.548;2022-08-21T05:00:32;18.33;;;14.20;;
3433;SDS011;1730;41.932;25.548;2022-08-21T05:02:58;21.30;;;15.00;;
3433;SDS011;1730;41.932;25.548;2022-08-21T05:05:27;18.80;;;14.90;;
3433;SDS011;1730;41.932;25.548;2022-08-21T05:07:57;19.67;;;15.90;;
3433;SDS011;1730;41.932;25.548;2022-08-21T05:10:26;23.17;;;16.20;;
3433;SDS011;1730;41.932;25.548;2022-08-21T05:12:52;21.07;;;15.87;;
3433;SDS011;1730;41.932;25.548;2022-08-21T05:15:19;17.13;;;15.07;;
3433;SDS011;1730;41.932;25.548;2022-08-21T05:17:45;20.40;;;14.33;;
3433;SDS011;1730;41.932;25.548;2022-08-21T05:20:11;18.70;;;13.30;;
3433;SDS011;1730;41.932;25.548;2022-08-21T05:22:39;25.00;;;14.30;;
3433;SDS011;1730;41.932;25.548;2022-08-21T05:25:05;17.13;;;14.37;;
3433;SDS011;1730;41.932;25.548;2022-08-21T05:27:32;20.10;;;12.83;;
3433;SDS011;1730;41.932;25.548;2022-08-21T05:29:58;17.77;;;12.40;;
3433;SDS011;1730;41.932;25.548;2022-08-21T05:32:23;15.53;;;12.67;;
3433;SDS011;1730;41.932;25.548;2022-08-21T05:34:50;15.03;;;12.10;;
3433;SDS011;1730;41.932;25.548;2022-08-21T05:37:16;17.53;;;13.10;;
3433;SDS011;1730;41.932;25.548;2022-08-21T05:39:41;21.10;;;13.70;;
3433;SDS011;1730;41.932;25.548;2022-08-21T05:42:07;16.20;;;13.30;;
3433;SDS011;1730;41.932;25.548;2022-08-21T05:44:33;14.93;;;10.93;;
3433;SDS011;1730;41.932;25.548;2022-08-21T05:47:03;14.10;;;10.80;;
3433;SDS011;1730;41.932;25.548;2022-08-21T05:49:30;13.03;;;11.20;;
3433;SDS011;1730;41.932;25.548;2022-08-21T05:51:56;15.37;;;10.90;;
3433;SDS011;1730;41.932;25.548;2022-08-21T05:54:22;15.80;;;10.77;;
3433;SDS011;1730;41.932;25.548;2022-08-21T05:56:47;12.67;;;10.17;;
3433;SDS011;1730;41.932;25.548;2022-08-21T05:59:13;12.60;;;9.73;;
3433;SDS011;1730;41.932;25.548;2022-08-21T06:01:39;16.20;;;10.60;;
3433;SDS011;1730;41.932;25.548;2022-08-21T06:04:05;17.63;;;9.70;;
3433;SDS011;1730;41.932;25.548;2022-08-21T06:06:31;14.33;;;9.73;;
3433;SDS011;1730;41.932;25.548;2022-08-21T06:08:57;12.33;;;9.60;;
3433;SDS011;1730;41.932;25.548;2022-08-21T06:11:23;16.80;;;8.90;;
3433;SDS011;1730;41.932;25.548;2022-08-21T06:13:48;10.90;;;8.40;;
3433;SDS011;1730;41.932;25.548;2022-08-21T06:16:15;22.37;;;9.40;;
3433;SDS011;1730;41.932;25.548;2022-08-21T06:18:42;12.97;;;8.57;;
3433;SDS011;1730;41.932;25.548;2022-08-21T06:21:08;11.67;;;8.03;;
3433;SDS011;1730;41.932;25.548;2022-08-21T06:23:34;10.20;;;7.30;;
3433;SDS011;1730;41.932;25.548;2022-08-21T06:26:01;13.73;;;8.00;;
3433;SDS011;1730;41.932;25.548;2022-08-21T06:28:28;12.90;;;8.30;;
3433;SDS011;1730;41.932;25.548;2022-08-21T06:30:54;10.87;;;8.30;;
3433;SDS011;1730;41.932;25.548;2022-08-21T06:33:19;9.27;;;7.80;;
3433;SDS011;1730;41.932;25.548;2022-08-21T06:35:45;14.87;;;8.50;;
3433;SDS011;1730;41.932;25.548;2022-08-21T06:38:11;13.70;;;8.40;;
3433;SDS011;1730;41.932;25.548;2022-08-21T06:40:36;13.87;;;8.83;;
3433;SDS011;1730;41.932;25.548;2022-08-21T06:43:08;15.20;;;8.70;;
3433;SDS011;1730;41.932;25.548;2022-08-21T06:45:36;13.03;;;8.00;;
3433;SDS011;1730;41.932;25.548;2022-08-21T06:48:02;9.73;;;8.43;;
3433;SDS011;1730;41.932;25.548;2022-08-21T06:50:28;11.43;;;8.97;;
3433;SDS011;1730;41.932;25.548;2022-08-21T06:53:09;17.90;;;10.03;;
3433;SDS011;1730;41.932;25.548;2022-08-21T06:55:36;13.60;;;9.20;;
3433;SDS011;1730;41.932;25.548;2022-08-21T06:58:02;11.37;;;8.97;;
3433;SDS011;1730;41.932;25.548;2022-08-21T07:00:29;11.10;;;9.93;;
3433;SDS011;1730;41.932;25.548;2022-08-21T07:02:55;14.87;;;10.30;;
3433;SDS011;1730;41.932;25.548;2022-08-21T07:05:22;11.07;;;9.93;;
3433;SDS011;1730;41.932;25.548;2022-08-21T07:07:51;15.10;;;10.20;;
3433;SDS011;1730;41.932;25.548;2022-08-21T07:10:16;13.90;;;9.60;;
3433;SDS011;1730;41.932;25.548;2022-08-21T07:12:42;12.03;;;10.07;;
3433;SDS011;1730;41.932;25.548;2022-08-21T07:15:08;12.13;;;9.57;;
3433;SDS011;1730;41.932;25.548;2022-08-21T07:17:35;13.47;;;10.50;;
3433;SDS011;1730;41.932;25.548;2022-08-21T07:20:00;18.90;;;9.90;;
3433;SDS011;1730;41.932;25.548;2022-08-21T07:22:26;15.30;;;10.17;;
3433;SDS011;1730;41.932;25.548;2022-08-21T07:24:53;11.50;;;10.23;;
3433;SDS011;1730;41.932;25.548;2022-08-21T07:27:20;17.93;;;11.60;;
3433;SDS011;1730;41.932;25.548;2022-08-21T07:29:46;14.33;;;10.37;;
3433;SDS011;1730;41.932;25.548;2022-08-21T07:32:11;21.00;;;11.30;;
3433;SDS011;1730;41.932;25.548;2022-08-21T07:34:37;20.63;;;11.33;;
3433;SDS011;1730;41.932;25.548;2022-08-21T07:37:02;13.43;;;11.50;;
3433;SDS011;1730;41.932;25.548;2022-08-21T07:39:29;16.30;;;11.80;;
3433;SDS011;1730;41.932;25.548;2022-08-21T07:41:55;13.60;;;11.73;;
3433;SDS011;1730;41.932;25.548;2022-08-21T07:44:20;17.73;;;11.33;;
3433;SDS011;1730;41.932;25.548;2022-08-21T07:46:46;11.77;;;10.03;;
3433;SDS011;1730;41.932;25.548;2022-08-21T07:49:11;14.47;;;11.57;;
3433;SDS011;1730;41.932;25.548;2022-08-21T07:51:37;14.20;;;10.20;;
3433;SDS011;1730;41.932;25.548;2022-08-21T07:54:03;12.87;;;9.63;;
3433;SDS011;1730;41.932;25.548;2022-08-21T07:56:29;11.70;;;10.50;;
3433;SDS011;1730;41.932;25.548;2022-08-21T07:58:55;10.13;;;9.03;;
3433;SDS011;1730;41.932;25.548;2022-08-21T08:01:22;10.10;;;8.70;;
3433;SDS011;1730;41.932;25.548;2022-08-21T08:03:49;14.90;;;9.43;;
3433;SDS011;1730;41.932;25.548;2022-08-21T08:06:15;12.67;;;8.33;;
3433;SDS011;1730;41.932;25.548;2022-08-21T08:08:43;11.73;;;8.53;;
3433;SDS011;1730;41.932;25.548;2022-08-21T08:11:09;9.63;;;8.63;;
3433;SDS011;1730;41.932;25.548;2022-08-21T08:13:40;7.87;;;7.00;;
3433;SDS011;1730;41.932;25.548;2022-08-21T08:16:07;9.33;;;8.50;;
3433;SDS011;1730;41.932;25.548;2022-08-21T08:18:33;11.43;;;8.70;;
3433;SDS011;1730;41.932;25.548;2022-08-21T08:20:59;18.67;;;8.03;;
3433;SDS011;1730;41.932;25.548;2022-08-21T08:23:24;8.30;;;6.67;;
3433;SDS011;1730;41.932;25.548;2022-08-21T08:25:51;9.13;;;7.90;;
3433;SDS011;1730;41.932;25.548;2022-08-21T08:28:17;8.87;;;7.97;;
3433;SDS011;1730;41.932;25.548;2022-08-21T08:30:43;8.07;;;7.33;;
3433;SDS011;1730;41.932;25.548;2022-08-21T08:33:09;10.50;;;7.10;;
3433;SDS011;1730;41.932;25.548;2022-08-21T08:35:35;8.40;;;6.70;;
3433;SDS011;1730;41.932;25.548;2022-08-21T08:38:01;7.13;;;6.43;;
3433;SDS011;1730;41.932;25.548;2022-08-21T08:43:09;8.30;;;6.50;;
3433;SDS011;1730;41.932;25.548;2022-08-21T08:45:37;13.50;;;7.57;;
3433;SDS011;1730;41.932;25.548;2022-08-21T08:48:06;8.13;;;7.30;;
3433;SDS011;1730;41.932;25.548;2022-08-21T08:50:49;7.17;;;6.27;;
3433;SDS011;1730;41.932;25.548;2022-08-21T08:53:22;8.50;;;5.77;;
3433;SDS011;1730;41.932;25.548;2022-08-21T08:55:53;7.63;;;6.10;;
3433;SDS011;1730;41.932;25.548;2022-08-21T08:58:23;6.60;;;6.00;;
3433;SDS011;1730;41.932;25.548;2022-08-21T09:00:51;6.73;;;6.23;;
3433;SDS011;1730;41.932;25.548;2022-08-21T09:03:18;7.03;;;6.43;;
3433;SDS011;1730;41.932;25.548;2022-08-21T09:05:51;8.30;;;6.30;;
3433;SDS011;1730;41.932;25.548;2022-08-21T09:11:22;7.67;;;6.90;;
3433;SDS011;1730;41.932;25.548;2022-08-21T09:17:02;6.90;;;6.40;;
3433;SDS011;1730;41.932;25.548;2022-08-21T09:19:56;10.07;;;7.87;;
3433;SDS011;1730;41.932;25.548;2022-08-21T09:25:21;6.90;;;6.27;;
3433;SDS011;1730;41.932;25.548;2022-08-21T09:27:48;6.40;;;5.93;;
3433;SDS011;1730;41.932;25.548;2022-08-21T09:30:15;7.07;;;6.30;;
3433;SDS011;1730;41.932;25.548;2022-08-21T09:32:41;7.50;;;6.30;;
3433;SDS011;1730;41.932;25.548;2022-08-21T09:37:34;7.10;;;6.50;;
3433;SDS011;1730;41.932;25.548;2022-08-21T09:45:37;8.40;;;7.70;;
3433;SDS011;1730;41.932;25.548;2022-08-21T09:48:15;9.30;;;8.43;;
3433;SDS011;1730;41.932;25.548;2022-08-21T09:50:44;9.47;;;8.63;;
3433;SDS011;1730;41.932;25.548;2022-08-21T09:55:56;8.60;;;7.90;;
3433;SDS011;1730;41.932;25.548;2022-08-21T09:58:44;7.37;;;6.67;;
3433;SDS011;1730;41.932;25.548;2022-08-21T10:01:13;8.00;;;7.00;;
3433;SDS011;1730;41.932;25.548;2022-08-21T10:03:41;6.27;;;5.40;;
3433;SDS011;1730;41.932;25.548;2022-08-21T10:06:07;8.13;;;6.50;;
3433;SDS011;1730;41.932;25.548;2022-08-21T10:08:37;8.07;;;6.87;;
3433;SDS011;1730;41.932;25.548;2022-08-21T10:11:08;7.70;;;6.90;;
3433;SDS011;1730;41.932;25.548;2022-08-21T10:24:45;6.20;;;5.63;;
3433;SDS011;1730;41.932;25.548;2022-08-21T10:35:25;7.17;;;5.80;;
3433;SDS011;1730;41.932;25.548;2022-08-21T10:41:04;11.20;;;6.03;;
3433;SDS011;1730;41.932;25.548;2022-08-21T10:49:14;8.10;;;6.00;;
3433;SDS011;1730;41.932;25.548;2022-08-21T10:57:50;6.93;;;6.43;;
3433;SDS011;1730;41.932;25.548;2022-08-21T11:00:23;8.57;;;6.67;;
3433;SDS011;1730;41.932;25.548;2022-08-21T11:05:33;11.80;;;7.10;;
3433;SDS011;1730;41.932;25.548;2022-08-21T11:08:26;8.30;;;7.60;;
3433;SDS011;1730;41.932;25.548;2022-08-21T11:11:13;7.60;;;7.07;;
3433;SDS011;1730;41.932;25.548;2022-08-21T11:13:48;8.13;;;7.37;;
3433;SDS011;1730;41.932;25.548;2022-08-21T11:19:59;7.20;;;6.60;;
3433;SDS011;1730;41.932;25.548;2022-08-21T11:28:05;8.83;;;7.93;;
3433;SDS011;1730;41.932;25.548;2022-08-21T11:31:24;8.30;;;7.50;;
3433;SDS011;1730;41.932;25.548;2022-08-21T11:36:19;8.60;;;7.70;;
3433;SDS011;1730;41.932;25.548;2022-08-21T11:39:06;8.23;;;7.63;;
3433;SDS011;1730;41.932;25.548;2022-08-21T11:50:42;8.47;;;7.67;;
3433;SDS011;1730;41.932;25.548;2022-08-21T11:53:19;9.53;;;8.73;;
3433;SDS011;1730;41.932;25.548;2022-08-21T11:56:15;9.50;;;8.83;;
3433;SDS011;1730;41.932;25.548;2022-08-21T11:58:50;9.50;;;8.63;;
3433;SDS011;1730;41.932;25.548;2022-08-21T12:01:21;9.93;;;9.23;;
3433;SDS011;1730;41.932;25.548;2022-08-21T12:03:57;9.80;;;9.10;;
3433;SDS011;1730;41.932;25.548;2022-08-21T12:06:29;10.87;;;10.00;;
3433;SDS011;1730;41.932;25.548;2022-08-21T12:09:04;11.73;;;10.40;;
3433;SDS011;1730;41.932;25.548;2022-08-21T12:11:50;10.37;;;9.57;;
3433;SDS011;1730;41.932;25.548;2022-08-21T12:14:34;12.20;;;9.60;;
3433;SDS011;1730;41.932;25.548;2022-08-21T12:17:06;10.80;;;10.07;;
3433;SDS011;1730;41.932;25.548;2022-08-21T12:19:34;10.67;;;8.80;;
3433;SDS011;1730;41.932;25.548;2022-08-21T12:24:33;10.60;;;9.57;;
3433;SDS011;1730;41.932;25.548;2022-08-21T12:29:47;12.13;;;10.13;;
3433;SDS011;1730;41.932;25.548;2022-08-21T12:37:42;10.30;;;9.40;;
3433;SDS011;1730;41.932;25.548;2022-08-21T12:40:13;11.40;;;10.07;;
3433;SDS011;1730;41.932;25.548;2022-08-21T12:42:52;10.03;;;9.13;;
3433;SDS011;1730;41.932;25.548;2022-08-21T12:45:34;12.10;;;9.57;;
3433;SDS011;1730;41.932;25.548;2022-08-21T12:53:04;10.27;;;9.37;;
3433;SDS011;1730;41.932;25.548;2022-08-21T12:55:34;10.20;;;9.20;;
3433;SDS011;1730;41.932;25.548;2022-08-21T12:58:00;10.60;;;9.70;;
3433;SDS011;1730;41.932;25.548;2022-08-21T13:00:28;9.83;;;9.03;;
3433;SDS011;1730;41.932;25.548;2022-08-21T13:02:55;10.63;;;9.90;;
3433;SDS011;1730;41.932;25.548;2022-08-21T13:05:28;10.73;;;9.77;;
3433;SDS011;1730;41.932;25.548;2022-08-21T13:07:58;11.30;;;10.33;;
3433;SDS011;1730;41.932;25.548;2022-08-21T13:10:29;11.30;;;10.10;;
3433;SDS011;1730;41.932;25.548;2022-08-21T13:12:58;10.67;;;9.87;;
3433;SDS011;1730;41.932;25.548;2022-08-21T13:15:27;11.27;;;10.30;;
3433;SDS011;1730;41.932;25.548;2022-08-21T13:17:54;10.37;;;9.30;;
3433;SDS011;1730;41.932;25.548;2022-08-21T13:20:29;10.17;;;9.23;;
3433;SDS011;1730;41.932;25.548;2022-08-21T13:22:57;10.27;;;9.30;;
3433;SDS011;1730;41.932;25.548;2022-08-21T13:25:28;10.57;;;9.60;;
3433;SDS011;1730;41.932;25.548;2022-08-21T13:28:06;11.63;;;10.63;;
3433;SDS011;1730;41.932;25.548;2022-08-21T13:30:34;10.87;;;9.97;;
3433;SDS011;1730;41.932;25.548;2022-08-21T13:33:04;13.13;;;10.33;;
3433;SDS011;1730;41.932;25.548;2022-08-21T13:35:35;11.13;;;9.70;;
3433;SDS011;1730;41.932;25.548;2022-08-21T13:38:12;10.17;;;9.23;;
3433;SDS011;1730;41.932;25.548;2022-08-21T13:40:40;9.93;;;9.10;;
3433;SDS011;1730;41.932;25.548;2022-08-21T13:43:13;12.13;;;10.90;;
3433;SDS011;1730;41.932;25.548;2022-08-21T13:45:43;11.83;;;10.87;;
3433;SDS011;1730;41.932;25.548;2022-08-21T13:48:12;10.57;;;9.53;;
3433;SDS011;1730;41.932;25.548;2022-08-21T13:50:39;10.23;;;9.40;;
3433;SDS011;1730;41.932;25.548;2022-08-21T13:53:07;10.37;;;9.57;;
3433;SDS011;1730;41.932;25.548;2022-08-21T13:55:46;9.13;;;8.53;;
3433;SDS011;1730;41.932;25.548;2022-08-21T13:58:11;11.53;;;10.63;;
3433;SDS011;1730;41.932;25.548;2022-08-21T14:00:45;11.90;;;9.90;;
3433;SDS011;1730;41.932;25.548;2022-08-21T14:03:17;10.97;;;9.97;;
3433;SDS011;1730;41.932;25.548;2022-08-21T14:05:53;10.10;;;9.30;;
3433;SDS011;1730;41.932;25.548;2022-08-21T14:08:33;10.27;;;9.37;;
3433;SDS011;1730;41.932;25.548;2022-08-21T14:11:02;11.13;;;10.10;;
3433;SDS011;1730;41.932;25.548;2022-08-21T14:13:40;11.20;;;10.03;;
3433;SDS011;1730;41.932;25.548;2022-08-21T14:16:10;10.37;;;9.60;;
3433;SDS011;1730;41.932;25.548;2022-08-21T14:21:32;9.77;;;8.83;;
3433;SDS011;1730;41.932;25.548;2022-08-21T14:24:13;10.60;;;9.50;;
3433;SDS011;1730;41.932;25.548;2022-08-21T14:26:50;12.30;;;10.00;;
3433;SDS011;1730;41.932;25.548;2022-08-21T14:29:22;10.90;;;10.10;;
3433;SDS011;1730;41.932;25.548;2022-08-21T14:31:52;10.70;;;9.60;;
3433;SDS011;1730;41.932;25.548;2022-08-21T14:34:20;10.40;;;9.27;;
3433;SDS011;1730;41.932;25.548;2022-08-21T14:36:47;11.20;;;10.20;;
3433;SDS011;1730;41.932;25.548;2022-08-21T14:39:14;10.17;;;9.00;;
3433;SDS011;1730;41.932;25.548;2022-08-21T14:41:40;9.83;;;8.87;;
3433;SDS011;1730;41.932;25.548;2022-08-21T14:44:07;10.47;;;9.70;;
3433;SDS011;1730;41.932;25.548;2022-08-21T14:46:34;9.33;;;8.43;;
3433;SDS011;1730;41.932;25.548;2022-08-21T14:49:02;9.53;;;8.63;;
3433;SDS011;1730;41.932;25.548;2022-08-21T14:51:28;10.33;;;8.87;;
3433;SDS011;1730;41.932;25.548;2022-08-21T14:53:54;12.97;;;9.53;;
3433;SDS011;1730;41.932;25.548;2022-08-21T14:56:19;13.90;;;9.80;;
3433;SDS011;1730;41.932;25.548;2022-08-21T14:58:49;10.13;;;9.13;;
3433;SDS011;1730;41.932;25.548;2022-08-21T15:01:17;17.20;;;9.47;;
3433;SDS011;1730;41.932;25.548;2022-08-21T15:03:45;13.37;;;10.07;;
3433;SDS011;1730;41.932;25.548;2022-08-21T15:06:12;11.83;;;9.67;;
3433;SDS011;1730;41.932;25.548;2022-08-21T15:08:38;10.80;;;9.20;;
3433;SDS011;1730;41.932;25.548;2022-08-21T15:11:04;12.20;;;10.70;;
3433;SDS011;1730;41.932;25.548;2022-08-21T15:13:31;12.03;;;9.60;;
3433;SDS011;1730;41.932;25.548;2022-08-21T15:15:58;11.73;;;10.70;;
3433;SDS011;1730;41.932;25.548;2022-08-21T15:18:25;12.20;;;10.60;;
3433;SDS011;1730;41.932;25.548;2022-08-21T15:20:51;14.53;;;12.63;;
3433;SDS011;1730;41.932;25.548;2022-08-21T15:23:17;15.20;;;12.50;;
3433;SDS011;1730;41.932;25.548;2022-08-21T15:25:44;14.33;;;13.03;;
3433;SDS011;1730;41.932;25.548;2022-08-21T15:28:11;14.60;;;11.80;;
3433;SDS011;1730;41.932;25.548;2022-08-21T15:30:38;12.50;;;11.33;;
3433;SDS011;1730;41.932;25.548;2022-08-21T15:33:06;16.00;;;11.90;;
3433;SDS011;1730;41.932;25.548;2022-08-21T15:35:32;13.03;;;11.73;;
3433;SDS011;1730;41.932;25.548;2022-08-21T15:37:58;16.47;;;12.30;;
3433;SDS011;1730;41.932;25.548;2022-08-21T15:40:24;19.93;;;12.83;;
3433;SDS011;1730;41.932;25.548;2022-08-21T15:42:52;15.67;;;11.20;;
3433;SDS011;1730;41.932;25.548;2022-08-21T15:45:22;16.10;;;11.10;;
3433;SDS011;1730;41.932;25.548;2022-08-21T15:47:48;11.97;;;10.80;;
3433;SDS011;1730;41.932;25.548;2022-08-21T15:50:15;15.03;;;11.87;;
3433;SDS011;1730;41.932;25.548;2022-08-21T15:52:41;10.67;;;9.73;;
3433;SDS011;1730;41.932;25.548;2022-08-21T15:55:07;10.50;;;9.50;;
3433;SDS011;1730;41.932;25.548;2022-08-21T15:57:34;16.40;;;10.23;;
3433;SDS011;1730;41.932;25.548;2022-08-21T16:00:03;12.70;;;10.67;;
3433;SDS011;1730;41.932;25.548;2022-08-21T16:02:37;11.30;;;9.47;;
3433;SDS011;1730;41.932;25.548;2022-08-21T16:05:05;15.03;;;10.20;;
3433;SDS011;1730;41.932;25.548;2022-08-21T16:07:31;9.73;;;8.93;;
3433;SDS011;1730;41.932;25.548;2022-08-21T16:09:56;10.47;;;9.00;;
3433;SDS011;1730;41.932;25.548;2022-08-21T16:12:24;13.77;;;10.20;;
3433;SDS011;1730;41.932;25.548;2022-08-21T16:14:52;10.47;;;9.50;;
3433;SDS011;1730;41.932;25.548;2022-08-21T16:17:19;11.00;;;9.80;;
3433;SDS011;1730;41.932;25.548;2022-08-21T16:19:49;13.20;;;9.70;;
3433;SDS011;1730;41.932;25.548;2022-08-21T16:22:15;11.33;;;8.37;;
3433;SDS011;1730;41.932;25.548;2022-08-21T16:24:41;10.60;;;9.63;;
3433;SDS011;1730;41.932;25.548;2022-08-21T16:27:06;10.77;;;9.87;;
3433;SDS011;1730;41.932;25.548;2022-08-21T16:29:33;12.10;;;10.73;;
3433;SDS011;1730;41.932;25.548;2022-08-21T16:32:01;10.67;;;9.27;;
3433;SDS011;1730;41.932;25.548;2022-08-21T16:34:27;10.20;;;9.20;;